Time;durP1;ratioP1;P1;durP2;ratioP2;P2;SDS_P1;SDS_P2;PMS_P1;PMS_P2;Temp;Humidity;BMP_temperature;BMP_pressure;BME280_temperature;BME280_humidity;BME280_pressure;Samples;Min_cycle;Max_cycle;Signal;HPM_P1;HPM_P2
2021/01/03 00:00:33;;;;;;;0.93;0.60;;;;;;;1.90;89.82;101114.31;5076452;28;20475;-66
2021/01/03 00:02:59;;;;;;;0.57;0.57;;;;;;;1.84;90.01;101117.94;5076948;28;20506;-68
2021/01/03 00:05:30;;;;;;;1.27;1.03;;;;;;;1.79;89.83;101114.31;5076706;28;20923;-67
2021/01/03 00:07:58;;;;;;;0.50;0.50;;;;;;;1.71;90.64;101112.78;5076868;28;20497;-67
2021/01/03 00:10:25;;;;;;;0.40;0.30;;;;;;;1.73;90.73;101111.53;5076263;28;20501;-67
2021/01/03 00:12:51;;;;;;;0.80;0.40;;;;;;;1.72;91.99;101115.22;5076733;28;20504;-67
2021/01/03 00:15:21;;;;;;;0.93;0.70;;;;;;;1.75;92.69;101125.47;5075990;28;20452;-67
2021/01/03 00:17:48;;;;;;;4.63;0.80;;;;;;;1.77;93.10;101123.38;5076749;28;20445;-67
2021/01/03 00:20:18;;;;;;;0.53;0.50;;;;;;;1.82;93.69;101127.22;5076362;28;20448;-67
2021/01/03 00:22:44;;;;;;;0.50;0.40;;;;;;;1.89;94.06;101130.59;5076028;28;20490;-67
2021/01/03 00:25:12;;;;;;;0.47;0.33;;;;;;;1.94;94.15;101136.06;5076248;28;20933;-67
2021/01/03 00:27:38;;;;;;;0.60;0.60;;;;;;;1.99;93.88;101130.81;5075943;28;21056;-67
2021/01/03 00:30:07;;;;;;;1.90;1.13;;;;;;;2.03;93.48;101130.13;5076533;28;20440;-66
2021/01/03 00:32:33;;;;;;;0.97;0.60;;;;;;;2.12;93.58;101135.97;5075992;28;20464;-67
2021/01/03 00:35:00;;;;;;;0.70;0.70;;;;;;;2.17;93.51;101137.94;5076418;28;20445;-67
2021/01/03 00:37:27;;;;;;;0.40;0.40;;;;;;;2.23;93.33;101131.69;5075867;28;20475;-67
2021/01/03 00:39:53;;;;;;;7.77;1.63;;;;;;;2.28;93.41;101129.94;5076248;28;20433;-67
2021/01/03 00:42:19;;;;;;;0.40;0.40;;;;;;;2.33;93.10;101121.22;5076176;28;20649;-67
2021/01/03 00:44:46;;;;;;;0.80;0.50;;;;;;;2.33;91.51;101120.41;5075501;28;20484;-67
2021/01/03 00:47:12;;;;;;;0.40;0.30;;;;;;;2.31;91.11;101109.97;5075743;28;20509;-67
2021/01/03 00:49:39;;;;;;;0.40;0.30;;;;;;;2.25;90.80;101103.66;5075793;28;20451;-66
2021/01/03 00:52:06;;;;;;;0.60;0.60;;;;;;;2.14;91.43;101107.16;5075336;28;20497;-67
2021/01/03 00:54:32;;;;;;;0.40;0.30;;;;;;;2.06;91.30;101099.50;5076052;28;20437;-67
2021/01/03 00:56:58;;;;;;;0.40;0.30;;;;;;;2.07;91.48;101098.44;5075398;28;20441;-67
2021/01/03 00:59:24;;;;;;;0.40;0.40;;;;;;;2.07;90.89;101101.09;5075955;28;20481;-66
2021/01/03 01:01:50;;;;;;;0.40;0.30;;;;;;;1.95;89.99;101093.09;5074918;28;20495;-67
2021/01/03 01:04:17;;;;;;;2.50;0.87;;;;;;;1.78;90.13;101086.81;5074446;28;20973;-67
2021/01/03 01:06:43;;;;;;;0.40;0.40;;;;;;;1.70;90.84;101087.94;5075729;28;20519;-67
2021/01/03 01:09:10;;;;;;;6.43;0.93;;;;;;;1.57;91.03;101090.81;5075169;28;20489;-67
2021/01/03 01:11:39;;;;;;;3.23;2.93;;;;;;;1.59;91.23;101086.06;5075708;28;20549;-67
2021/01/03 01:14:05;;;;;;;0.87;0.87;;;;;;;1.50;90.82;101082.91;5075450;28;20434;-66
2021/01/03 01:16:31;;;;;;;2.77;0.63;;;;;;;1.41;91.14;101078.94;5075683;28;20440;-66
2021/01/03 01:18:57;;;;;;;1.80;1.23;;;;;;;1.41;91.12;101081.59;5075182;28;20985;-69
2021/01/03 01:21:23;;;;;;;0.40;0.30;;;;;;;1.39;91.55;101077.56;5074519;28;21010;-67
2021/01/03 01:23:50;;;;;;;1.90;0.87;;;;;;;1.37;91.81;101076.94;5075722;28;20419;-66
2021/01/03 01:26:17;;;;;;;0.40;0.40;;;;;;;1.39;92.03;101080.22;5075121;28;20513;-67
2021/01/03 01:28:43;;;;;;;0.40;0.30;;;;;;;1.36;92.69;101083.34;5075413;28;20862;-67
2021/01/03 01:31:09;;;;;;;1.57;1.47;;;;;;;1.32;91.94;101087.50;5075303;28;20469;-67
2021/01/03 01:33:35;;;;;;;0.40;0.30;;;;;;;1.34;92.43;101086.25;5075124;28;20476;-67
2021/01/03 01:36:01;;;;;;;1.43;0.93;;;;;;;1.29;92.05;101087.97;5074555;28;20477;-67
2021/01/03 01:38:27;;;;;;;0.73;0.73;;;;;;;1.32;92.79;101090.97;5074889;28;20449;-67
2021/01/03 01:40:56;;;;;;;1.47;1.07;;;;;;;1.43;92.87;101094.75;5074531;28;20999;-65
2021/01/03 01:43:23;;;;;;;0.40;0.30;;;;;;;1.43;93.40;101089.41;5075057;28;20457;-67
2021/01/03 01:45:49;;;;;;;2.50;1.63;;;;;;;1.50;93.66;101090.91;5074503;28;20473;-67
2021/01/03 01:48:19;;;;;;;7.00;1.40;;;;;;;1.57;93.64;101085.50;5075059;28;20534;-67
2021/01/03 01:50:47;;;;;;;0.40;0.30;;;;;;;1.57;93.75;101085.50;5074359;28;20485;-67
2021/01/03 01:53:20;;;;;;;0.70;0.70;;;;;;;1.62;93.31;101076.78;5074824;28;20458;-67
2021/01/03 01:55:53;;;;;;;0.40;0.30;;;;;;;1.64;92.92;101072.88;5074694;28;20476;-67
2021/01/03 01:58:30;;;;;;;0.80;0.63;;;;;;;1.72;93.29;101071.69;5074608;28;20847;-67
2021/01/03 02:01:02;;;;;;;0.80;0.77;;;;;;;1.73;93.20;101068.81;5074364;28;20467;-68
2021/01/03 02:03:35;;;;;;;4.73;1.00;;;;;;;1.81;93.12;101069.50;5074178;28;21012;-67
2021/01/03 02:06:10;;;;;;;2.30;0.67;;;;;;;1.84;92.75;101077.88;5074447;28;20856;-68
2021/01/03 02:08:41;;;;;;;1.03;1.00;;;;;;;1.82;92.61;101076.50;5074429;28;20447;-67
2021/01/03 02:11:09;;;;;;;0.93;0.50;;;;;;;1.82;92.43;101071.97;5074226;28;20953;-67
2021/01/03 02:13:39;;;;;;;0.50;0.50;;;;;;;1.76;91.99;101073.66;5074073;28;20969;-67
2021/01/03 02:16:07;;;;;;;0.40;0.30;;;;;;;1.66;91.50;101068.09;5074431;28;20437;-67
2021/01/03 02:18:34;;;;;;;0.40;0.30;;;;;;;1.60;91.65;101073.56;5074221;28;20881;-67
2021/01/03 02:21:15;;;;;;;0.83;0.50;;;;;;;1.63;91.29;101062.41;5073720;28;20972;-68
2021/01/03 02:23:49;;;;;;;1.17;1.17;;;;;;;1.62;91.51;101061.59;5074048;28;20458;-67
2021/01/03 02:26:20;;;;;;;0.40;0.30;;;;;;;1.59;90.54;101048.69;5073559;28;20491;-67
2021/01/03 02:28:46;;;;;;;3.10;1.60;;;;;;;1.49;90.79;101048.44;5073811;28;20483;-67
2021/01/03 02:31:16;;;;;;;2.30;2.00;;;;;;;1.51;91.15;101043.72;5073671;28;20468;-67
2021/01/03 02:33:45;;;;;;;2.20;2.10;;;;;;;1.41;91.30;101038.09;5074069;28;20448;-66
2021/01/03 02:36:15;;;;;;;1.80;1.70;;;;;;;1.47;91.51;101042.53;5073775;28;20479;-68
2021/01/03 02:38:50;;;;;;;0.80;0.60;;;;;;;1.30;91.84;101046.91;5074006;28;20441;-66
2021/01/03 02:41:18;;;;;;;0.40;0.30;;;;;;;1.36;92.13;101043.31;5073268;28;20993;-67
2021/01/03 02:43:44;;;;;;;0.43;0.37;;;;;;;1.44;92.03;101048.31;5073509;28;20446;-68
2021/01/03 02:46:10;;;;;;;0.40;0.30;;;;;;;1.43;91.62;101063.53;5073645;28;20457;-67
2021/01/03 02:48:37;;;;;;;0.57;0.57;;;;;;;1.46;92.68;101067.56;5073892;28;20448;-66
2021/01/03 02:51:03;;;;;;;0.50;0.40;;;;;;;1.51;92.36;101057.06;5073358;28;20441;-67
2021/01/03 02:53:29;;;;;;;0.40;0.30;;;;;;;1.56;93.04;101059.84;5074066;28;20472;-67
2021/01/03 02:55:55;;;;;;;2.53;1.90;;;;;;;1.59;92.95;101050.53;5073499;28;20441;-67
2021/01/03 02:58:22;;;;;;;0.50;0.50;;;;;;;1.61;92.60;101057.28;5073593;28;20469;-67
2021/01/03 03:00:48;;;;;;;5.50;0.90;;;;;;;1.60;92.81;101060.19;5073220;28;20442;-66
2021/01/03 03:03:14;;;;;;;0.97;0.60;;;;;;;1.58;92.71;101057.75;5073507;28;20518;-67
2021/01/03 03:05:41;;;;;;;0.40;0.30;;;;;;;1.61;92.93;101059.16;5073053;28;20956;-68
2021/01/03 03:08:07;;;;;;;0.90;0.50;;;;;;;1.55;93.17;101057.38;5073464;28;20493;-71
2021/01/03 03:10:33;;;;;;;0.40;0.33;;;;;;;1.52;92.94;101053.34;5072822;28;20436;-70
2021/01/03 03:13:01;;;;;;;0.87;0.87;;;;;;;1.58;93.24;101064.94;5073499;28;20484;-68
2021/01/03 03:15:32;;;;;;;0.40;0.30;;;;;;;1.65;92.99;101061.13;5073032;28;21000;-67
2021/01/03 03:17:59;;;;;;;2.23;1.73;;;;;;;1.68;93.05;101050.00;5073412;28;20429;-68
2021/01/03 03:20:25;;;;;;;0.70;0.40;;;;;;;1.72;92.84;101043.13;5073042;28;20519;-67
2021/01/03 03:22:51;;;;;;;0.40;0.40;;;;;;;1.71;92.71;101054.84;5072950;28;20479;-67
2021/01/03 03:25:18;;;;;;;6.90;0.90;;;;;;;1.66;92.41;101049.41;5072227;28;20474;-67
2021/01/03 03:27:45;;;;;;;0.40;0.30;;;;;;;1.69;91.69;101043.59;5073119;28;20590;-67
2021/01/03 03:30:13;;;;;;;0.50;0.47;;;;;;;1.67;91.59;101042.19;5072955;28;20802;-67
2021/01/03 03:32:40;;;;;;;3.00;1.57;;;;;;;1.70;91.13;101049.75;5072850;28;20556;-67
2021/01/03 03:35:09;;;;;;;0.63;0.40;;;;;;;1.70;91.18;101047.91;5072957;28;20449;-67
2021/01/03 03:37:35;;;;;;;0.60;0.53;;;;;;;1.71;90.74;101052.19;5073183;28;20447;-67
2021/01/03 03:40:01;;;;;;;0.60;0.60;;;;;;;1.69;90.67;101040.13;5072495;28;20445;-67
2021/01/03 03:42:27;;;;;;;0.40;0.40;;;;;;;1.65;90.74;101039.78;5072762;28;20468;-67
2021/01/03 03:44:53;;;;;;;0.80;0.80;;;;;;;1.69;90.72;101043.59;5072304;28;20993;-67
2021/01/03 03:47:19;;;;;;;1.10;1.03;;;;;;;1.76;90.08;101040.81;5072938;28;20509;-67
2021/01/03 03:49:46;;;;;;;0.60;0.60;;;;;;;1.59;90.72;101032.66;5072739;28;20473;-66
2021/01/03 03:52:13;;;;;;;1.90;1.10;;;;;;;1.54;90.54;101031.75;5072935;28;20473;-67
2021/01/03 03:54:42;;;;;;;0.40;0.30;;;;;;;1.39;91.05;101018.84;5072473;28;20448;-67
2021/01/03 03:57:09;;;;;;;0.80;0.57;;;;;;;1.23;91.96;101009.63;5072536;28;20437;-67
2021/01/03 03:59:38;;;;;;;1.27;1.17;;;;;;;1.26;92.50;101015.31;5072272;28;20437;-66
2021/01/03 04:02:04;;;;;;;0.40;0.20;;;;;;;1.30;93.03;101004.22;5072826;28;20493;-67
2021/01/03 04:04:30;;;;;;;0.40;0.30;;;;;;;1.45;93.50;101007.25;5072577;28;20476;-67
2021/01/03 04:06:57;;;;;;;0.40;0.30;;;;;;;1.63;92.89;101015.16;5072553;28;20997;-67
2021/01/03 04:09:23;;;;;;;0.40;0.30;;;;;;;1.73;92.83;101019.94;5072408;28;21001;-67
2021/01/03 04:11:51;;;;;;;0.40;0.30;;;;;;;1.78;92.09;101020.06;5072926;28;20550;-66
2021/01/03 04:14:20;;;;;;;0.40;0.30;;;;;;;1.83;92.17;101022.84;5072402;28;20593;-67
2021/01/03 04:16:47;;;;;;;9.40;1.53;;;;;;;1.82;91.81;101017.75;5072555;28;20475;-67
2021/01/03 04:19:14;;;;;;;0.40;0.30;;;;;;;1.91;92.04;101024.34;5072498;28;20506;-67
2021/01/03 04:21:41;;;;;;;3.77;2.80;;;;;;;2.01;92.08;101021.91;5072227;28;20472;-67
2021/01/03 04:24:09;;;;;;;1.80;0.93;;;;;;;2.10;91.55;101033.03;5072182;28;20421;-67
2021/01/03 04:26:35;;;;;;;0.50;0.50;;;;;;;2.16;91.52;101034.78;5072462;28;20843;-67
2021/01/03 04:29:01;;;;;;;1.03;0.57;;;;;;;2.25;91.09;101034.19;5072349;28;20487;-67
2021/01/03 04:31:28;;;;;;;0.60;0.60;;;;;;;2.33;90.59;101029.53;5072090;28;20492;-67
2021/01/03 04:33:54;;;;;;;0.40;0.40;;;;;;;2.22;90.59;101023.97;5072701;28;20524;-67
2021/01/03 04:36:20;;;;;;;0.50;0.40;;;;;;;2.16;89.57;101019.56;5072342;28;20523;-67
2021/01/03 04:38:47;;;;;;;0.50;0.40;;;;;;;2.14;89.47;101026.19;5075947;28;20437;-67
2021/01/03 04:41:23;;;;;;;0.40;0.30;;;;;;;2.10;89.10;101020.50;5075999;28;20886;-67
2021/01/03 04:43:49;;;;;;;0.40;0.30;;;;;;;2.19;88.94;101027.09;5076001;28;20456;-66
2021/01/03 04:46:19;;;;;;;0.40;0.30;;;;;;;2.24;89.24;101021.06;5075825;28;20507;-67
2021/01/03 04:48:50;;;;;;;0.40;0.30;;;;;;;2.27;90.29;101020.59;5076250;28;20475;-67
2021/01/03 04:51:24;;;;;;;24.77;1.67;;;;;;;2.14;89.01;101029.69;5075834;28;20464;-67
2021/01/03 04:53:57;;;;;;;0.50;0.50;;;;;;;2.15;89.11;101020.59;5076031;28;20925;-66
2021/01/03 04:56:36;;;;;;;0.63;0.63;;;;;;;2.16;89.05;101019.56;5075844;28;20505;-67
2021/01/03 04:59:12;;;;;;;0.40;0.40;;;;;;;2.15;88.91;101011.78;5075664;28;20448;-67
2021/01/03 05:02:12;;;;;;;0.50;0.47;;;;;;;2.15;89.02;101014.44;5075230;28;21026;-66
2021/01/03 05:04:57;;;;;;;0.40;0.30;;;;;;;2.14;88.49;101012.84;5075374;28;20440;-67
2021/01/03 05:07:27;;;;;;;1.47;0.77;;;;;;;2.18;88.63;101009.47;5075529;28;20468;-67
2021/01/03 05:10:10;;;;;;;0.97;0.97;;;;;;;2.26;88.64;101014.44;5075854;28;20778;-67
2021/01/03 05:12:49;;;;;;;0.40;0.30;;;;;;;2.29;88.82;100997.09;5075404;28;20489;-66
2021/01/03 05:15:27;;;;;;;1.23;1.13;;;;;;;2.24;88.66;100997.81;5075422;28;20440;-67
2021/01/03 05:17:54;;;;;;;0.40;0.30;;;;;;;2.20;88.34;100996.66;5075693;28;20464;-67
2021/01/03 05:20:20;;;;;;;1.00;0.63;;;;;;;2.17;89.62;100994.47;5074843;28;20481;-67
2021/01/03 05:22:47;;;;;;;0.40;0.30;;;;;;;2.13;89.15;100987.97;5075137;28;20966;-67
2021/01/03 05:25:17;;;;;;;1.90;0.90;;;;;;;2.07;89.96;100988.91;5075236;28;20460;-67
2021/01/03 05:28:02;;;;;;;0.83;0.83;;;;;;;2.02;90.22;100986.94;5113522;22;20911;-76
2021/01/03 05:30:30;;;;;;;0.40;0.40;;;;;;;2.11;89.68;100989.25;5116731;28;20420;-77
2021/01/03 05:33:05;;;;;;;0.40;0.20;;;;;;;2.13;90.77;100979.97;5117087;28;20484;-77
2021/01/03 05:35:36;;;;;;;0.40;0.30;;;;;;;2.23;91.01;100998.06;5116452;27;20461;-77
2021/01/03 05:38:03;;;;;;;0.53;0.47;;;;;;;2.28;90.89;100984.81;5098567;28;20468;-77
2021/01/03 05:40:32;;;;;;;1.73;0.53;;;;;;;2.23;91.21;100988.19;5095839;28;20447;-77
2021/01/03 05:43:14;;;;;;;0.50;0.43;;;;;;;2.15;91.52;100985.88;5095915;28;20440;-77
2021/01/03 05:45:48;;;;;;;0.40;0.30;;;;;;;2.20;92.39;100991.31;5075894;28;20425;-76
2021/01/03 05:48:23;;;;;;;0.60;0.60;;;;;;;2.20;92.36;100991.31;5075149;28;21002;-76
2021/01/03 05:50:50;;;;;;;2.23;0.70;;;;;;;2.19;92.88;100986.22;5089022;28;20447;-76
2021/01/03 05:53:20;;;;;;;1.47;0.50;;;;;;;2.18;92.94;100980.06;5095306;28;20451;-76
2021/01/03 05:55:58;;;;;;;0.40;0.30;;;;;;;2.24;93.05;100979.09;5095626;28;20428;-76
2021/01/03 05:58:30;;;;;;;0.97;0.97;;;;;;;2.22;93.17;100972.41;5095598;28;20463;-76
2021/01/03 06:01:15;;;;;;;3.03;1.70;;;;;;;2.21;93.44;100984.94;5095318;28;20820;-75
2021/01/03 06:03:41;;;;;;;1.73;0.67;;;;;;;2.24;93.71;100979.09;5095442;28;20445;-76
2021/01/03 06:06:25;;;;;;;0.40;0.30;;;;;;;2.10;92.46;100971.59;5096706;28;20451;-76
2021/01/03 06:08:59;;;;;;;0.40;0.33;;;;;;;2.00;93.03;100970.34;5075399;28;20424;-75
2021/01/03 06:11:26;;;;;;;4.30;0.70;;;;;;;1.94;93.33;100971.25;5075459;28;20428;-75
2021/01/03 06:13:55;;;;;;;7.13;1.23;;;;;;;1.97;93.79;100972.66;5075058;28;20444;-76
2021/01/03 06:16:26;;;;;;;0.40;0.30;;;;;;;1.94;94.03;100979.28;5075063;28;20526;-76
2021/01/03 06:19:00;;;;;;;0.40;0.30;;;;;;;1.88;93.24;100976.72;5075039;28;20418;-75
2021/01/03 06:21:29;;;;;;;0.73;0.73;;;;;;;1.91;94.26;100973.59;5075015;28;20441;-76
2021/01/03 06:24:07;;;;;;;1.17;1.17;;;;;;;1.87;94.22;100983.13;5075205;28;20806;-77
2021/01/03 06:26:36;;;;;;;0.40;0.30;;;;;;;1.93;94.39;100972.31;5074857;28;20461;-76
2021/01/03 06:29:14;;;;;;;0.40;0.30;;;;;;;1.89;94.70;100963.13;5074457;28;20947;-75
2021/01/03 06:32:29;;;;;;;1.33;1.17;;;;;;;1.85;95.02;100961.16;5075264;28;20437;-76
2021/01/03 06:35:01;;;;;;;0.83;0.83;;;;;;;1.91;95.23;100968.25;5074711;28;20437;-76
2021/01/03 06:37:34;;;;;;;0.40;0.30;;;;;;;1.82;95.62;100965.13;5074504;28;20464;-77
2021/01/03 06:40:08;;;;;;;0.40;0.40;;;;;;;1.83;96.24;100965.94;5074523;28;20899;-76
2021/01/03 06:43:25;;;;;;;0.40;0.30;;;;;;;1.85;96.81;100963.84;5075009;28;20430;-76
2021/01/03 06:46:31;;;;;;;0.40;0.30;;;;;;;1.91;97.04;100962.91;5040369;28;20464;-75
2021/01/03 06:49:31;;;;;;;1.63;1.53;;;;;;;1.96;97.81;100965.69;5074707;28;20413;-76
2021/01/03 06:52:33;;;;;;;0.60;0.60;;;;;;;1.98;97.52;100963.59;5074609;28;20429;-76
2021/01/03 06:55:44;;;;;;;0.40;0.30;;;;;;;1.99;97.94;100967.88;5074319;28;20952;-76
2021/01/03 06:58:58;;;;;;;0.40;0.30;;;;;;;2.03;98.39;100955.69;5074379;28;20468;-76
2021/01/03 07:01:28;;;;;;;1.30;1.30;;;;;;;2.00;98.53;100958.84;4992212;28;20491;-75
2021/01/03 07:04:01;;;;;;;0.40;0.30;;;;;;;2.00;98.26;100953.50;5056710;28;20456;-75
2021/01/03 07:06:33;;;;;;;1.17;0.43;;;;;;;1.99;98.76;100957.19;5073742;28;20895;-76
2021/01/03 07:09:06;;;;;;;0.40;0.30;;;;;;;1.93;98.89;100950.94;5074324;28;20492;-75
2021/01/03 07:11:48;;;;;;;0.47;0.37;;;;;;;1.96;99.23;100961.16;5073833;28;20446;-76
2021/01/03 07:14:47;;;;;;;0.40;0.30;;;;;;;1.97;98.98;100948.63;5073829;28;20407;-76
2021/01/03 07:17:16;;;;;;;0.40;0.30;;;;;;;2.01;99.22;100952.44;5073696;28;20462;-76
2021/01/03 07:19:51;;;;;;;0.40;0.30;;;;;;;1.97;98.85;100961.97;5073722;28;20838;-76
2021/01/03 07:22:24;;;;;;;0.50;0.50;;;;;;;1.85;98.24;100955.81;5073778;28;20421;-75
2021/01/03 07:25:18;;;;;;;0.70;0.40;;;;;;;1.83;98.51;100956.06;5073595;28;20414;-75
2021/01/03 07:27:45;;;;;;;0.40;0.40;;;;;;;1.86;98.55;100960.13;5073581;28;20518;-75
2021/01/03 07:30:48;;;;;;;0.50;0.40;;;;;;;1.91;98.99;100962.91;5074046;28;20929;-76
2021/01/03 07:33:26;;;;;;;0.40;0.30;;;;;;;1.87;99.71;100956.41;5073788;28;20510;-76
2021/01/03 07:35:53;;;;;;;0.60;0.60;;;;;;;1.86;99.50;100960.13;5074017;28;20853;-75
2021/01/03 07:38:29;;;;;;;0.40;0.30;;;;;;;1.83;99.24;100960.59;5073597;28;20827;-76
2021/01/03 07:41:04;;;;;;;0.40;0.30;;;;;;;1.83;99.50;100961.41;5073832;28;20438;-75
2021/01/03 07:43:56;;;;;;;5.00;2.73;;;;;;;1.85;100.00;100961.16;5073608;28;20446;-76
2021/01/03 07:46:54;;;;;;;0.40;0.30;;;;;;;1.85;99.91;100951.28;5074418;28;20472;-75
2021/01/03 07:49:39;;;;;;;10.13;1.40;;;;;;;1.80;99.73;100958.38;4992439;28;20441;-76
2021/01/03 07:52:35;;;;;;;1.27;1.17;;;;;;;1.82;100.00;100953.66;5066354;28;20467;-76
2021/01/03 07:55:01;;;;;;;0.40;0.30;;;;;;;1.80;100.00;100961.06;5065783;28;20456;-76
2021/01/03 07:57:27;;;;;;;0.40;0.40;;;;;;;1.80;100.00;100958.38;5090762;28;20531;-76
2021/01/03 07:59:56;;;;;;;0.40;0.30;;;;;;;1.84;100.00;100957.69;5095233;28;20444;-76
2021/01/03 08:02:27;;;;;;;0.50;0.40;;;;;;;1.91;100.00;100957.56;5095365;28;20485;-76
2021/01/03 08:04:54;;;;;;;0.40;0.30;;;;;;;1.99;100.00;100959.88;5095485;28;20431;-76
2021/01/03 08:07:21;;;;;;;0.40;0.30;;;;;;;2.04;100.00;100968.00;5095564;28;20483;-76
2021/01/03 08:09:48;;;;;;;0.40;0.30;;;;;;;2.03;100.00;100972.50;5094824;28;20458;-76
2021/01/03 08:12:20;;;;;;;0.50;0.40;;;;;;;2.00;100.00;100970.34;5095429;28;20437;-76
2021/01/03 08:14:47;;;;;;;0.40;0.30;;;;;;;2.07;100.00;100967.53;5097640;28;20902;-76
2021/01/03 08:17:26;;;;;;;0.80;0.80;;;;;;;2.06;100.00;100967.78;5098540;28;20532;-76
2021/01/03 08:19:52;;;;;;;0.40;0.30;;;;;;;2.06;100.00;100965.09;5098248;28;20433;-76
2021/01/03 08:22:25;;;;;;;0.50;0.40;;;;;;;2.08;100.00;100968.34;5098637;28;20481;-76
2021/01/03 08:24:54;;;;;;;0.50;0.50;;;;;;;2.04;100.00;100965.34;5098067;28;20452;-75
2021/01/03 08:27:23;;;;;;;2.97;0.60;;;;;;;1.98;100.00;100964.41;5097522;28;20488;-76
2021/01/03 08:29:58;;;;;;;0.40;0.30;;;;;;;1.99;100.00;100979.41;5098165;28;20420;-76
2021/01/03 08:32:28;;;;;;;0.40;0.30;;;;;;;1.89;100.00;100965.81;5097533;28;20895;-75
2021/01/03 08:34:59;;;;;;;1.63;1.00;;;;;;;1.86;100.00;100966.28;5098638;28;20451;-76
2021/01/03 08:37:27;;;;;;;0.40;0.30;;;;;;;1.85;100.00;100969.19;5097492;28;20982;-76
2021/01/03 08:39:55;;;;;;;0.40;0.30;;;;;;;1.80;100.00;100961.06;5097532;28;20444;-76
2021/01/03 08:42:26;;;;;;;1.27;1.17;;;;;;;1.90;100.00;100967.41;5099106;28;20433;-75
2021/01/03 08:44:57;;;;;;;0.70;0.70;;;;;;;1.85;100.00;100964.66;5100324;28;20424;-76
2021/01/03 08:47:28;;;;;;;0.40;0.30;;;;;;;1.82;100.00;100964.31;5098327;28;20507;-75
2021/01/03 08:50:07;;;;;;;0.40;0.30;;;;;;;1.79;100.00;100962.91;5099210;28;20424;-76
2021/01/03 08:52:33;;;;;;;0.80;0.80;;;;;;;1.80;100.00;100961.06;5099084;28;20951;-76
2021/01/03 08:55:10;;;;;;;0.40;0.40;;;;;;;1.83;100.00;100958.75;5096823;28;20488;-76
2021/01/03 08:57:38;;;;;;;0.40;0.37;;;;;;;1.83;100.00;100960.59;5097685;28;20464;-75
2021/01/03 09:00:06;;;;;;;0.70;0.70;;;;;;;1.83;100.00;100957.94;5099434;28;20445;-76
2021/01/03 09:02:34;;;;;;;1.23;0.50;;;;;;;1.85;100.00;100953.16;5097836;28;20444;-75
2021/01/03 09:05:03;;;;;;;4.20;1.03;;;;;;;1.75;100.00;100954.56;5097435;28;20848;-76
2021/01/03 09:07:35;;;;;;;0.50;0.50;;;;;;;1.81;100.00;100954.66;5097195;28;20537;-76
2021/01/03 09:10:03;;;;;;;0.40;0.30;;;;;;;1.83;100.00;100958.75;5097543;28;20440;-76
2021/01/03 09:12:37;;;;;;;0.50;0.47;;;;;;;1.89;100.00;100965.81;5096656;28;20441;-76
2021/01/03 09:15:07;;;;;;;0.83;0.50;;;;;;;1.88;100.00;100963.38;5098408;28;20466;-76
2021/01/03 09:17:38;;;;;;;1.33;0.70;;;;;;;1.88;100.00;100960.72;5098155;28;20981;-76
2021/01/03 09:20:14;;;;;;;0.80;0.57;;;;;;;1.95;100.00;100964.09;5096412;28;20489;-75
2021/01/03 09:22:44;;;;;;;1.60;0.77;;;;;;;1.98;100.00;100966.25;5098292;28;20424;-76
2021/01/03 09:25:18;;;;;;;0.40;0.30;;;;;;;2.00;100.00;100961.50;5095471;28;20444;-77
2021/01/03 09:27:55;;;;;;;0.50;0.40;;;;;;;1.95;100.00;100969.41;5096522;28;20487;-78
2021/01/03 09:30:28;;;;;;;0.40;0.30;;;;;;;1.94;100.00;100959.75;5096125;28;20425;-77
2021/01/03 09:33:07;;;;;;;0.40;0.30;;;;;;;1.94;100.00;100968.59;5096174;28;20416;-78
2021/01/03 09:35:48;;;;;;;1.43;0.87;;;;;;;1.92;100.00;100965.34;5096203;28;20901;-77
2021/01/03 09:38:32;;;;;;;0.40;0.30;;;;;;;1.95;100.00;100964.09;5096515;28;20479;-77
2021/01/03 09:41:12;;;;;;;2.43;0.70;;;;;;;1.97;100.00;100964.66;5096153;28;20467;-78
2021/01/03 09:43:51;;;;;;;0.40;0.30;;;;;;;1.98;100.00;100961.72;5096966;28;20894;-77
2021/01/03 09:46:24;;;;;;;0.40;0.30;;;;;;;1.96;100.00;100965.69;5095536;28;20473;-78
2021/01/03 09:48:52;;;;;;;1.27;0.93;;;;;;;1.93;100.00;100955.47;5095750;28;20984;-78
2021/01/03 09:51:33;;;;;;;0.40;0.30;;;;;;;1.91;100.00;100962.91;5095734;28;20963;-78
2021/01/03 09:54:06;;;;;;;1.37;1.27;;;;;;;1.88;100.00;100963.38;5096434;28;20435;-78
2021/01/03 09:56:35;;;;;;;1.70;0.57;;;;;;;1.82;100.00;100954.44;5095817;28;20475;-77
2021/01/03 09:59:09;;;;;;;0.40;0.30;;;;;;;1.80;100.00;100951.19;5096166;28;20443;-78
2021/01/03 10:01:37;;;;;;;1.57;1.10;;;;;;;1.83;100.00;100956.06;5096477;28;20432;-79
2021/01/03 10:04:17;;;;;;;0.40;0.30;;;;;;;1.86;100.00;100952.94;5097140;28;20447;-78
2021/01/03 10:06:45;;;;;;;0.40;0.30;;;;;;;1.73;100.00;100951.31;5095518;28;20521;-78
2021/01/03 10:09:14;;;;;;;0.40;0.30;;;;;;;1.72;100.00;100948.88;5095741;28;20447;-78
2021/01/03 10:11:41;;;;;;;0.40;0.30;;;;;;;1.75;100.00;100951.88;5096085;28;20436;-78
2021/01/03 10:14:10;;;;;;;0.40;0.30;;;;;;;1.83;100.00;100949.91;5096339;28;20451;-79
2021/01/03 10:16:38;;;;;;;0.80;0.50;;;;;;;1.90;100.00;100951.41;5095658;28;20493;-79
2021/01/03 10:19:17;;;;;;;0.97;0.50;;;;;;;1.91;100.00;100953.03;5096069;28;20510;-78
2021/01/03 10:21:44;;;;;;;0.40;0.30;;;;;;;1.91;100.00;100949.56;5096328;28;20917;-79
2021/01/03 10:24:17;;;;;;;0.60;0.60;;;;;;;1.87;100.00;100949.22;5095463;28;20801;-78
2021/01/03 10:26:46;;;;;;;1.33;1.23;;;;;;;1.74;100.00;100954.81;5095308;28;20992;-79
2021/01/03 10:29:14;;;;;;;0.40;0.30;;;;;;;1.72;100.00;100948.88;5095621;28;20452;-78
2021/01/03 10:31:43;;;;;;;0.40;0.30;;;;;;;1.69;100.00;100949.34;5096017;28;20921;-78
2021/01/03 10:34:10;;;;;;;0.40;0.30;;;;;;;1.69;100.00;100944.81;5096072;28;20446;-80
2021/01/03 10:36:37;;;;;;;2.40;0.93;;;;;;;1.60;100.00;100938.22;5096425;28;20483;-78
2021/01/03 10:39:05;;;;;;;0.40;0.30;;;;;;;1.65;100.00;100941.00;5095748;28;20445;-78
2021/01/03 10:41:34;;;;;;;0.60;0.50;;;;;;;1.63;100.00;100940.38;5096114;28;20445;-79
2021/01/03 10:44:00;;;;;;;4.63;1.23;;;;;;;1.55;100.00;100934.59;5096587;28;20444;-79
2021/01/03 10:46:27;;;;;;;0.40;0.30;;;;;;;1.66;100.00;100931.13;5096398;28;20468;-79
2021/01/03 10:48:53;;;;;;;2.70;0.50;;;;;;;1.71;100.00;100928.56;5096855;28;20892;-79
2021/01/03 10:51:28;;;;;;;0.50;0.40;;;;;;;1.72;100.00;100932.84;5095722;28;20429;-79
2021/01/03 10:53:56;;;;;;;2.00;1.90;;;;;;;1.76;100.00;100923.31;5095668;28;20432;-79
2021/01/03 10:56:22;;;;;;;0.40;0.30;;;;;;;1.79;100.00;100932.72;5095720;28;20869;-79
2021/01/03 10:58:48;;;;;;;0.90;0.70;;;;;;;1.83;100.00;100925.88;5096145;28;20502;-79
2021/01/03 11:01:14;;;;;;;0.40;0.30;;;;;;;1.84;100.00;100916.81;5095974;28;20505;-78
2021/01/03 11:03:41;;;;;;;0.93;0.83;;;;;;;1.87;100.00;100932.38;5095504;28;20821;-78
2021/01/03 11:06:07;;;;;;;1.40;1.30;;;;;;;1.88;100.00;100923.31;5095882;28;20858;-78
2021/01/03 11:08:33;;;;;;;0.40;0.30;;;;;;;1.88;100.00;100920.66;5095840;28;20889;-79
2021/01/03 11:11:00;;;;;;;0.83;0.80;;;;;;;1.86;100.00;100917.38;5095692;28;20500;-79
2021/01/03 11:13:27;;;;;;;0.70;0.70;;;;;;;1.86;100.00;100917.38;5096301;28;20454;-78
2021/01/03 11:15:53;;;;;;;0.40;0.30;;;;;;;1.87;100.00;100914.50;5096703;28;20449;-79
2021/01/03 11:18:19;;;;;;;0.40;0.30;;;;;;;1.83;100.00;100908.00;5096759;28;20464;-79
2021/01/03 11:20:46;;;;;;;1.60;0.73;;;;;;;1.88;100.00;100909.97;5099506;28;20814;-79
2021/01/03 11:23:12;;;;;;;0.40;0.30;;;;;;;1.88;100.00;100916.13;5098535;28;20448;-79
2021/01/03 11:25:42;;;;;;;0.40;0.20;;;;;;;1.94;100.00;100909.00;5098803;28;20451;-79
2021/01/03 11:28:09;;;;;;;2.87;0.87;;;;;;;1.91;100.00;100915.66;5097440;28;20496;-79
2021/01/03 11:30:35;;;;;;;0.50;0.40;;;;;;;1.85;100.00;100910.41;5098660;28;20447;-79
2021/01/03 11:33:02;;;;;;;0.60;0.60;;;;;;;1.91;100.00;100910.31;5102908;22;20504;-67
2021/01/03 11:35:28;;;;;;;8.80;1.63;;;;;;;1.94;100.00;100903.66;5053092;28;20959;-67
2021/01/03 11:37:54;;;;;;;0.40;0.30;;;;;;;1.91;100.00;100904.16;5053160;28;20447;-67
2021/01/03 11:40:21;;;;;;;0.40;0.40;;;;;;;1.87;100.00;100908.34;5052477;28;20484;-67
2021/01/03 11:42:47;;;;;;;0.50;0.50;;;;;;;1.85;100.00;100905.09;5053373;28;20448;-66
2021/01/03 11:45:17;;;;;;;0.40;0.30;;;;;;;1.85;100.00;100899.75;5052730;28;20978;-68
2021/01/03 11:47:44;;;;;;;0.40;0.37;;;;;;;1.91;100.00;100898.81;5052218;28;21007;-67
2021/01/03 11:50:13;;;;;;;0.80;0.40;;;;;;;1.92;100.00;100895.09;5052967;28;20465;-67